sensor_id;sensor_type;location;lat;lon;timestamp;pressure;altitude;pressure_sealevel;temperature;humidity
71504;BME280;59323;50.874;7.028;2023-10-19T00:00:56;99107.66;;;10.71;100.00
71504;BME280;59323;50.874;7.028;2023-10-19T00:03:23;99114.22;;;10.73;100.00
71504;BME280;59323;50.874;7.028;2023-10-19T00:05:49;99090.25;;;10.65;100.00
71504;BME280;59323;50.874;7.028;2023-10-19T00:08:15;99093.31;;;10.70;100.00
71504;BME280;59323;50.874;7.028;2023-10-19T00:10:47;99101.06;;;10.72;100.00
71504;BME280;59323;50.874;7.028;2023-10-19T00:13:15;99103.31;;;10.77;100.00
71504;BME280;59323;50.874;7.028;2023-10-19T00:15:43;99095.97;;;10.74;100.00
71504;BME280;59323;50.874;7.028;2023-10-19T00:18:14;99097.13;;;10.76;100.00
71504;BME280;59323;50.874;7.028;2023-10-19T00:21:01;99090.88;;;10.79;100.00
71504;BME280;59323;50.874;7.028;2023-10-19T00:23:50;99107.88;;;10.87;100.00
71504;BME280;59323;50.874;7.028;2023-10-19T00:26:19;99107.06;;;10.90;100.00
71504;BME280;59323;50.874;7.028;2023-10-19T00:29:11;99097.81;;;10.84;100.00
71504;BME280;59323;50.874;7.028;2023-10-19T00:32:00;99102.03;;;10.89;100.00
71504;BME280;59323;50.874;7.028;2023-10-19T00:34:28;99110.94;;;10.89;100.00
71504;BME280;59323;50.874;7.028;2023-10-19T00:36:54;99101.66;;;10.87;100.00
71504;BME280;59323;50.874;7.028;2023-10-19T00:39:22;99105.50;;;10.89;100.00
71504;BME280;59323;50.874;7.028;2023-10-19T00:41:49;99110.53;;;10.91;100.00
71504;BME280;59323;50.874;7.028;2023-10-19T00:44:17;99109.69;;;10.97;100.00
71504;BME280;59323;50.874;7.028;2023-10-19T00:46:50;99110.09;;;10.96;100.00
71504;BME280;59323;50.874;7.028;2023-10-19T00:49:26;99108.56;;;10.95;100.00
71504;BME280;59323;50.874;7.028;2023-10-19T00:51:53;99104.28;;;10.94;100.00
71504;BME280;59323;50.874;7.028;2023-10-19T00:54:30;99110.81;;;11.00;100.00
71504;BME280;59323;50.874;7.028;2023-10-19T00:57:06;99093.78;;;10.96;100.00
71504;BME280;59323;50.874;7.028;2023-10-19T00:59:37;99092.19;;;10.98;100.00
71504;BME280;59323;50.874;7.028;2023-10-19T01:02:12;99096.00;;;11.04;100.00
71504;BME280;59323;50.874;7.028;2023-10-19T01:04:45;99096.75;;;11.08;100.00
71504;BME280;59323;50.874;7.028;2023-10-19T01:07:12;99082.81;;;11.06;100.00
71504;BME280;59323;50.874;7.028;2023-10-19T01:09:46;99095.53;;;11.13;100.00
71504;BME280;59323;50.874;7.028;2023-10-19T01:12:12;99097.03;;;11.18;100.00
71504;BME280;59323;50.874;7.028;2023-10-19T01:15:09;99094.19;;;11.28;100.00
71504;BME280;59323;50.874;7.028;2023-10-19T01:17:39;99084.47;;;11.27;100.00
71504;BME280;59323;50.874;7.028;2023-10-19T01:20:15;99089.56;;;11.25;100.00
71504;BME280;59323;50.874;7.028;2023-10-19T01:23:00;99070.53;;;11.25;100.00
71504;BME280;59323;50.874;7.028;2023-10-19T01:25:51;99088.31;;;11.30;100.00
71504;BME280;59323;50.874;7.028;2023-10-19T01:28:28;99074.31;;;11.31;100.00
71504;BME280;59323;50.874;7.028;2023-10-19T01:31:11;99080.06;;;11.37;100.00
71504;BME280;59323;50.874;7.028;2023-10-19T01:33:59;99082.69;;;11.44;100.00
71504;BME280;59323;50.874;7.028;2023-10-19T01:36:26;99080.38;;;11.42;100.00
71504;BME280;59323;50.874;7.028;2023-10-19T01:38:56;99076.47;;;11.43;100.00
71504;BME280;59323;50.874;7.028;2023-10-19T01:41:27;99077.59;;;11.46;100.00
71504;BME280;59323;50.874;7.028;2023-10-19T01:43:53;99081.16;;;11.43;100.00
71504;BME280;59323;50.874;7.028;2023-10-19T01:46:20;99082.22;;;11.49;100.00
71504;BME280;59323;50.874;7.028;2023-10-19T01:49:04;99081.09;;;11.47;100.00
71504;BME280;59323;50.874;7.028;2023-10-19T01:51:31;99083.34;;;11.52;100.00
71504;BME280;59323;50.874;7.028;2023-10-19T01:54:09;99081.41;;;11.52;100.00
71504;BME280;59323;50.874;7.028;2023-10-19T01:56:34;99073.56;;;11.58;100.00
71504;BME280;59323;50.874;7.028;2023-10-19T01:59:02;99063.84;;;11.57;100.00
71504;BME280;59323;50.874;7.028;2023-10-19T02:01:29;99061.53;;;11.55;100.00
71504;BME280;59323;50.874;7.028;2023-10-19T02:03:56;99069.19;;;11.64;100.00
71504;BME280;59323;50.874;7.028;2023-10-19T02:06:24;99065.75;;;11.60;100.00
71504;BME280;59323;50.874;7.028;2023-10-19T02:09:02;99057.16;;;11.61;100.00
71504;BME280;59323;50.874;7.028;2023-10-19T02:11:48;99049.00;;;11.61;100.00
71504;BME280;59323;50.874;7.028;2023-10-19T02:14:14;99056.72;;;11.66;100.00
71504;BME280;59323;50.874;7.028;2023-10-19T02:16:41;99046.56;;;11.70;100.00
71504;BME280;59323;50.874;7.028;2023-10-19T02:19:08;99053.53;;;11.71;100.00
71504;BME280;59323;50.874;7.028;2023-10-19T02:21:33;99045.75;;;11.73;100.00
71504;BME280;59323;50.874;7.028;2023-10-19T02:24:05;99036.47;;;11.67;100.00
71504;BME280;59323;50.874;7.028;2023-10-19T02:26:32;99032.97;;;11.70;100.00
71504;BME280;59323;50.874;7.028;2023-10-19T02:29:02;99036.03;;;11.72;100.00
71504;BME280;59323;50.874;7.028;2023-10-19T02:31:36;99033.31;;;11.72;100.00
71504;BME280;59323;50.874;7.028;2023-10-19T02:34:06;99026.34;;;11.71;100.00
71504;BME280;59323;50.874;7.028;2023-10-19T02:36:32;99030.63;;;11.69;100.00
71504;BME280;59323;50.874;7.028;2023-10-19T02:39:00;99046.16;;;11.72;100.00
71504;BME280;59323;50.874;7.028;2023-10-19T02:41:29;99039.88;;;11.75;100.00
71504;BME280;59323;50.874;7.028;2023-10-19T02:43:55;99039.09;;;11.78;100.00
71504;BME280;59323;50.874;7.028;2023-10-19T02:46:31;99033.63;;;11.78;100.00
71504;BME280;59323;50.874;7.028;2023-10-19T02:49:04;99039.09;;;11.78;100.00
71504;BME280;59323;50.874;7.028;2023-10-19T02:51:34;99027.47;;;11.74;100.00
71504;BME280;59323;50.874;7.028;2023-10-19T02:53:59;99040.56;;;11.83;100.00
71504;BME280;59323;50.874;7.028;2023-10-19T02:56:27;99031.63;;;11.82;100.00
71504;BME280;59323;50.874;7.028;2023-10-19T02:58:55;99027.31;;;11.85;100.00
71504;BME280;59323;50.874;7.028;2023-10-19T03:01:27;99026.13;;;11.86;100.00
71504;BME280;59323;50.874;7.028;2023-10-19T03:03:56;99019.63;;;11.80;100.00
71504;BME280;59323;50.874;7.028;2023-10-19T03:06:29;99019.63;;;11.80;100.00
71504;BME280;59323;50.874;7.028;2023-10-19T03:08:59;99023.47;;;11.82;100.00
71504;BME280;59323;50.874;7.028;2023-10-19T03:11:30;99013.41;;;11.79;100.00
71504;BME280;59323;50.874;7.028;2023-10-19T03:13:58;99007.59;;;11.77;100.00
71504;BME280;59323;50.874;7.028;2023-10-19T03:16:24;99020.69;;;11.86;100.00
71504;BME280;59323;50.874;7.028;2023-10-19T03:18:54;99001.34;;;11.80;100.00
71504;BME280;59323;50.874;7.028;2023-10-19T03:21:20;99000.44;;;11.87;100.00
71504;BME280;59323;50.874;7.028;2023-10-19T03:23:52;98984.81;;;11.91;100.00
71504;BME280;59323;50.874;7.028;2023-10-19T03:26:17;98977.78;;;11.93;100.00
71504;BME280;59323;50.874;7.028;2023-10-19T03:28:43;98977.78;;;11.93;100.00
71504;BME280;59323;50.874;7.028;2023-10-19T03:31:10;98973.16;;;11.90;100.00
71504;BME280;59323;50.874;7.028;2023-10-19T03:33:45;98984.06;;;11.90;100.00
71504;BME280;59323;50.874;7.028;2023-10-19T03:36:18;98972.88;;;11.85;100.00
71504;BME280;59323;50.874;7.028;2023-10-19T03:38:44;98995.41;;;11.85;100.00
71504;BME280;59323;50.874;7.028;2023-10-19T03:41:11;98971.06;;;11.78;100.00
71504;BME280;59323;50.874;7.028;2023-10-19T03:43:36;98978.47;;;11.74;100.00
71504;BME280;59323;50.874;7.028;2023-10-19T03:46:08;98975.03;;;11.70;100.00
71504;BME280;59323;50.874;7.028;2023-10-19T03:48:51;98978.47;;;11.74;100.00
71504;BME280;59323;50.874;7.028;2023-10-19T03:51:17;98972.78;;;11.65;100.00
71504;BME280;59323;50.874;7.028;2023-10-19T03:53:43;98986.69;;;11.70;100.00
71504;BME280;59323;50.874;7.028;2023-10-19T03:56:20;98985.91;;;11.70;100.00
71504;BME280;59323;50.874;7.028;2023-10-19T03:58:48;98978.97;;;11.65;100.00
71504;BME280;59323;50.874;7.028;2023-10-19T04:01:16;98972.78;;;11.65;100.00
71504;BME280;59323;50.874;7.028;2023-10-19T04:03:44;98975.50;;;11.65;100.00
71504;BME280;59323;50.874;7.028;2023-10-19T04:06:10;98953.38;;;11.63;100.00
71504;BME280;59323;50.874;7.028;2023-10-19T04:08:42;98946.88;;;11.57;100.00
71504;BME280;59323;50.874;7.028;2023-10-19T04:11:16;98954.63;;;11.58;100.00
71504;BME280;59323;50.874;7.028;2023-10-19T04:13:48;98957.63;;;11.64;100.00
71504;BME280;59323;50.874;7.028;2023-10-19T04:16:18;98948.69;;;11.63;100.00
71504;BME280;59323;50.874;7.028;2023-10-19T04:18:44;98955.25;;;11.66;100.00
71504;BME280;59323;50.874;7.028;2023-10-19T04:21:09;98945.91;;;11.67;100.00
71504;BME280;59323;50.874;7.028;2023-10-19T04:23:35;98959.88;;;11.69;100.00
71504;BME280;59323;50.874;7.028;2023-10-19T04:26:01;98954.91;;;11.64;100.00
71504;BME280;59323;50.874;7.028;2023-10-19T04:28:44;98940.53;;;11.63;100.00
71504;BME280;59323;50.874;7.028;2023-10-19T04:31:11;98957.16;;;11.69;100.00
71504;BME280;59323;50.874;7.028;2023-10-19T04:33:39;98958.66;;;11.73;100.00
71504;BME280;59323;50.874;7.028;2023-10-19T04:36:08;98962.97;;;11.71;100.00
71504;BME280;59323;50.874;7.028;2023-10-19T04:38:36;98951.25;;;11.74;100.00
71504;BME280;59323;50.874;7.028;2023-10-19T04:41:09;98934.22;;;11.70;100.00
71504;BME280;59323;50.874;7.028;2023-10-19T04:43:38;98935.78;;;11.71;100.00
71504;BME280;59323;50.874;7.028;2023-10-19T04:46:08;98934.22;;;11.70;100.00
71504;BME280;59323;50.874;7.028;2023-10-19T04:48:37;98945.38;;;11.79;100.00
71504;BME280;59323;50.874;7.028;2023-10-19T04:51:05;98936.47;;;11.75;100.00
71504;BME280;59323;50.874;7.028;2023-10-19T04:53:31;98935.66;;;11.78;100.00
71504;BME280;59323;50.874;7.028;2023-10-19T04:55:57;98930.22;;;11.78;100.00
71504;BME280;59323;50.874;7.028;2023-10-19T04:58:28;98943.72;;;11.85;100.00
71504;BME280;59323;50.874;7.028;2023-10-19T05:00:53;98944.81;;;11.88;100.00
71504;BME280;59323;50.874;7.028;2023-10-19T05:03:19;98952.50;;;11.93;100.00
71504;BME280;59323;50.874;7.028;2023-10-19T05:05:45;98941.22;;;11.94;100.00
71504;BME280;59323;50.874;7.028;2023-10-19T05:08:19;98946.66;;;11.94;100.00
71504;BME280;59323;50.874;7.028;2023-10-19T05:10:45;98940.16;;;11.88;100.00
71504;BME280;59323;50.874;7.028;2023-10-19T05:13:12;98943.66;;;11.89;100.00
71504;BME280;59323;50.874;7.028;2023-10-19T05:15:37;98941.22;;;11.94;100.00
71504;BME280;59323;50.874;7.028;2023-10-19T05:18:03;98945.47;;;11.95;100.00
71504;BME280;59323;50.874;7.028;2023-10-19T05:20:32;98942.81;;;11.92;100.00
71504;BME280;59323;50.874;7.028;2023-10-19T05:23:08;98944.81;;;11.88;100.00
71504;BME280;59323;50.874;7.028;2023-10-19T05:25:35;98952.50;;;11.93;100.00
71504;BME280;59323;50.874;7.028;2023-10-19T05:28:04;98933.59;;;11.86;100.00
71504;BME280;59323;50.874;7.028;2023-10-19T05:30:29;98934.28;;;11.90;100.00
71504;BME280;59323;50.874;7.028;2023-10-19T05:33:01;98936.25;;;11.89;100.00
71504;BME280;59323;50.874;7.028;2023-10-19T05:35:30;98928.84;;;11.90;100.00
71504;BME280;59323;50.874;7.028;2023-10-19T05:37:56;98938.56;;;11.91;100.00
71504;BME280;59323;50.874;7.028;2023-10-19T05:40:25;98930.81;;;11.89;100.00
71504;BME280;59323;50.874;7.028;2023-10-19T05:42:58;98930.81;;;11.89;100.00
71504;BME280;59323;50.874;7.028;2023-10-19T05:45:25;98945.13;;;11.93;100.00
71504;BME280;59323;50.874;7.028;2023-10-19T05:47:52;98926.06;;;11.93;100.00
71504;BME280;59323;50.874;7.028;2023-10-19T05:50:17;98920.63;;;11.93;100.00
71504;BME280;59323;50.874;7.028;2023-10-19T05:52:45;98938.41;;;11.98;100.00
71504;BME280;59323;50.874;7.028;2023-10-19T05:55:12;98950.06;;;11.98;100.00
71504;BME280;59323;50.874;7.028;2023-10-19T05:57:39;98952.44;;;11.96;100.00
71504;BME280;59323;50.874;7.028;2023-10-19T06:00:11;98948.19;;;11.95;100.00
71504;BME280;59323;50.874;7.028;2023-10-19T06:02:48;98956.34;;;11.95;100.00
71504;BME280;59323;50.874;7.028;2023-10-19T06:05:17;98964.38;;;12.02;100.00
71504;BME280;59323;50.874;7.028;2023-10-19T06:07:47;98955.94;;;11.97;100.00
71504;BME280;59323;50.874;7.028;2023-10-19T06:10:15;98970.19;;;12.04;100.00
71504;BME280;59323;50.874;7.028;2023-10-19T06:12:58;98957.88;;;11.96;100.00
71504;BME280;59323;50.874;7.028;2023-10-19T06:15:23;98970.53;;;12.06;100.00
71504;BME280;59323;50.874;7.028;2023-10-19T06:17:52;98966.28;;;12.05;100.00
71504;BME280;59323;50.874;7.028;2023-10-19T06:20:18;98979.06;;;12.09;100.00
71504;BME280;59323;50.874;7.028;2023-10-19T06:22:50;98972.34;;;12.13;100.00
71504;BME280;59323;50.874;7.028;2023-10-19T06:25:20;98965.78;;;12.11;100.00
71504;BME280;59323;50.874;7.028;2023-10-19T06:27:47;98980.88;;;12.15;100.00
71504;BME280;59323;50.874;7.028;2023-10-19T06:30:16;98978.50;;;12.17;100.00
71504;BME280;59323;50.874;7.028;2023-10-19T06:32:58;98965.03;;;12.10;100.00
71504;BME280;59323;50.874;7.028;2023-10-19T06:35:27;98965.38;;;12.12;100.00
71504;BME280;59323;50.874;7.028;2023-10-19T06:37:54;98975.28;;;12.22;100.00
71504;BME280;59323;50.874;7.028;2023-10-19T06:40:20;98976.00;;;12.26;100.00
71504;BME280;59323;50.874;7.028;2023-10-19T06:42:48;98975.22;;;12.26;100.00
71504;BME280;59323;50.874;7.028;2023-10-19T06:45:15;98980.31;;;12.24;100.00
71504;BME280;59323;50.874;7.028;2023-10-19T06:47:42;98977.53;;;12.27;100.00
71504;BME280;59323;50.874;7.028;2023-10-19T06:50:08;98980.50;;;12.36;100.00
71504;BME280;59323;50.874;7.028;2023-10-19T06:52:36;98969.59;;;12.36;100.00
71504;BME280;59323;50.874;7.028;2023-10-19T06:55:07;98973.56;;;12.32;100.00
71504;BME280;59323;50.874;7.028;2023-10-19T06:57:42;98983.56;;;12.38;100.00
71504;BME280;59323;50.874;7.028;2023-10-19T07:00:12;98985.03;;;12.43;100.00
71504;BME280;59323;50.874;7.028;2023-10-19T07:02:43;98978.06;;;12.42;100.00
71504;BME280;59323;50.874;7.028;2023-10-19T07:05:13;98979.88;;;12.49;100.00
71504;BME280;59323;50.874;7.028;2023-10-19T07:07:43;98981.81;;;12.48;100.00
71504;BME280;59323;50.874;7.028;2023-10-19T07:10:12;98989.34;;;12.60;100.00
71504;BME280;59323;50.874;7.028;2023-10-19T07:12:41;98984.66;;;12.61;100.00
71504;BME280;59323;50.874;7.028;2023-10-19T07:15:07;98998.56;;;12.66;100.00
71504;BME280;59323;50.874;7.028;2023-10-19T07:17:36;98994.25;;;12.69;100.00
71504;BME280;59323;50.874;7.028;2023-10-19T07:20:04;99000.72;;;12.75;100.00
71504;BME280;59323;50.874;7.028;2023-10-19T07:22:35;98988.22;;;12.78;100.00
71504;BME280;59323;50.874;7.028;2023-10-19T07:25:07;98988.22;;;12.78;100.00
71504;BME280;59323;50.874;7.028;2023-10-19T07:27:34;98980.53;;;12.73;100.00
71504;BME280;59323;50.874;7.028;2023-10-19T07:30:01;98990.44;;;12.83;100.00
71504;BME280;59323;50.874;7.028;2023-10-19T07:32:30;98992.81;;;12.81;100.00
71504;BME280;59323;50.874;7.028;2023-10-19T07:34:56;98991.63;;;12.82;100.00
71504;BME280;59323;50.874;7.028;2023-10-19T07:37:22;99008.69;;;12.86;100.00
71504;BME280;59323;50.874;7.028;2023-10-19T07:39:48;99011.69;;;12.91;100.00
71504;BME280;59323;50.874;7.028;2023-10-19T07:42:16;99013.22;;;12.92;100.00
71504;BME280;59323;50.874;7.028;2023-10-19T07:44:42;99006.22;;;12.91;100.00
71504;BME280;59323;50.874;7.028;2023-10-19T07:47:07;99014.25;;;12.98;100.00
71504;BME280;59323;50.874;7.028;2023-10-19T07:49:35;99009.53;;;13.02;100.00
71504;BME280;59323;50.874;7.028;2023-10-19T07:52:04;99002.88;;;13.04;100.00
71504;BME280;59323;50.874;7.028;2023-10-19T07:54:32;98999.03;;;13.01;100.00
71504;BME280;59323;50.874;7.028;2023-10-19T07:56:58;99002.88;;;13.04;100.00
71504;BME280;59323;50.874;7.028;2023-10-19T07:59:23;98996.22;;;13.05;100.00
71504;BME280;59323;50.874;7.028;2023-10-19T08:01:48;98996.50;;;13.10;100.00
71504;BME280;59323;50.874;7.028;2023-10-19T08:04:14;98992.22;;;13.09;100.00
71504;BME280;59323;50.874;7.028;2023-10-19T08:06:39;98992.44;;;13.18;100.00
71504;BME280;59323;50.874;7.028;2023-10-19T08:09:04;98976.91;;;13.15;100.00
71504;BME280;59323;50.874;7.028;2023-10-19T08:11:30;98980.25;;;13.23;100.00
71504;BME280;59323;50.874;7.028;2023-10-19T08:13:56;98972.34;;;13.28;100.00
71504;BME280;59323;50.874;7.028;2023-10-19T08:16:27;98975.31;;;13.34;100.00
71504;BME280;59323;50.874;7.028;2023-10-19T08:18:52;98985.97;;;13.45;100.00
71504;BME280;59323;50.874;7.028;2023-10-19T08:21:18;98976.09;;;13.51;100.00
71504;BME280;59323;50.874;7.028;2023-10-19T08:23:43;98971.66;;;13.57;100.00
71504;BME280;59323;50.874;7.028;2023-10-19T08:26:10;98978.06;;;13.67;100.00
71504;BME280;59323;50.874;7.028;2023-10-19T08:28:35;98976.69;;;13.75;100.00
71504;BME280;59323;50.874;7.028;2023-10-19T08:31:02;98973.69;;;13.85;100.00
71504;BME280;59323;50.874;7.028;2023-10-19T08:33:28;98963.44;;;13.89;100.00
71504;BME280;59323;50.874;7.028;2023-10-19T08:35:56;98971.94;;;14.08;100.00
71504;BME280;59323;50.874;7.028;2023-10-19T08:38:22;98979.41;;;14.20;100.00
71504;BME280;59323;50.874;7.028;2023-10-19T08:40:50;98968.28;;;14.27;100.00
71504;BME280;59323;50.874;7.028;2023-10-19T08:43:17;98984.28;;;14.57;100.00
71504;BME280;59323;50.874;7.028;2023-10-19T08:45:47;98975.44;;;14.79;100.00
71504;BME280;59323;50.874;7.028;2023-10-19T08:48:13;98971.44;;;15.09;100.00
71504;BME280;59323;50.874;7.028;2023-10-19T08:50:39;98969.03;;;15.36;100.00
71504;BME280;59323;50.874;7.028;2023-10-19T08:53:06;98962.69;;;15.65;100.00
71504;BME280;59323;50.874;7.028;2023-10-19T08:55:33;98973.00;;;15.95;100.00
71504;BME280;59323;50.874;7.028;2023-10-19T08:57:59;98966.56;;;16.11;100.00
71504;BME280;59323;50.874;7.028;2023-10-19T09:00:25;98959.47;;;16.35;100.00
71504;BME280;59323;50.874;7.028;2023-10-19T09:02:55;98959.63;;;16.63;100.00
71504;BME280;59323;50.874;7.028;2023-10-19T09:05:22;98953.34;;;16.75;100.00
71504;BME280;59323;50.874;7.028;2023-10-19T09:07:52;98957.72;;;16.94;100.00
71504;BME280;59323;50.874;7.028;2023-10-19T09:10:29;98949.69;;;17.09;100.00
71504;BME280;59323;50.874;7.028;2023-10-19T09:13:04;98951.59;;;17.30;100.00
71504;BME280;59323;50.874;7.028;2023-10-19T09:15:35;98936.78;;;17.28;100.00
71504;BME280;59323;50.874;7.028;2023-10-19T09:20:42;98932.94;;;17.16;100.00
71504;BME280;59323;50.874;7.028;2023-10-19T09:23:23;98946.03;;;17.12;100.00
71504;BME280;59323;50.874;7.028;2023-10-19T09:25:52;98936.56;;;17.04;100.00
71504;BME280;59323;50.874;7.028;2023-10-19T09:28:21;98946.94;;;17.09;100.00
71504;BME280;59323;50.874;7.028;2023-10-19T09:30:50;98933.72;;;17.17;100.00
71504;BME280;59323;50.874;7.028;2023-10-19T09:33:16;98928.84;;;17.21;100.00
71504;BME280;59323;50.874;7.028;2023-10-19T09:35:46;98925.38;;;17.38;100.00
71504;BME280;59323;50.874;7.028;2023-10-19T09:38:16;98920.34;;;17.46;100.00
71504;BME280;59323;50.874;7.028;2023-10-19T09:40:47;98912.31;;;17.61;100.00
71504;BME280;59323;50.874;7.028;2023-10-19T09:43:15;98912.50;;;17.76;100.00
71504;BME280;59323;50.874;7.028;2023-10-19T09:45:47;98920.91;;;17.90;100.00
71504;BME280;59323;50.874;7.028;2023-10-19T09:48:18;98916.78;;;17.95;100.00
71504;BME280;59323;50.874;7.028;2023-10-19T09:50:51;98925.31;;;18.06;98.84
71504;BME280;59323;50.874;7.028;2023-10-19T09:53:27;98912.94;;;18.20;99.07
71504;BME280;59323;50.874;7.028;2023-10-19T09:55:57;98903.63;;;18.17;96.66
71504;BME280;59323;50.874;7.028;2023-10-19T09:58:35;98912.03;;;18.23;96.66
71504;BME280;59323;50.874;7.028;2023-10-19T10:01:03;98914.03;;;18.22;97.98
71504;BME280;59323;50.874;7.028;2023-10-19T10:03:51;98923.94;;;18.29;98.77
71504;BME280;59323;50.874;7.028;2023-10-19T10:06:26;98915.38;;;18.27;98.68
71504;BME280;59323;50.874;7.028;2023-10-19T10:08:52;98931.41;;;18.28;97.33
71504;BME280;59323;50.874;7.028;2023-10-19T10:11:23;98914.78;;;18.23;96.17
71504;BME280;59323;50.874;7.028;2023-10-19T10:13:50;98927.72;;;18.41;95.92
71504;BME280;59323;50.874;7.028;2023-10-19T10:16:26;98921.28;;;18.62;96.12
71504;BME280;59323;50.874;7.028;2023-10-19T10:18:58;98916.22;;;18.69;93.67
71504;BME280;59323;50.874;7.028;2023-10-19T10:21:31;98911.91;;;18.78;94.81
71504;BME280;59323;50.874;7.028;2023-10-19T10:24:00;98911.44;;;18.88;93.96
71504;BME280;59323;50.874;7.028;2023-10-19T10:26:30;98908.22;;;18.90;92.97
71504;BME280;59323;50.874;7.028;2023-10-19T10:29:21;98915.19;;;19.00;93.37
71504;BME280;59323;50.874;7.028;2023-10-19T10:31:49;98910.75;;;19.03;92.45
71504;BME280;59323;50.874;7.028;2023-10-19T10:37:15;98909.81;;;19.06;92.09
71504;BME280;59323;50.874;7.028;2023-10-19T10:39:40;98911.38;;;18.97;91.73
71504;BME280;59323;50.874;7.028;2023-10-19T10:42:09;98888.38;;;18.77;91.67
71504;BME280;59323;50.874;7.028;2023-10-19T10:44:45;98891.16;;;18.67;92.50
71504;BME280;59323;50.874;7.028;2023-10-19T10:47:21;98892.69;;;18.59;92.91
71504;BME280;59323;50.874;7.028;2023-10-19T10:49:52;98889.03;;;18.53;93.65
71504;BME280;59323;50.874;7.028;2023-10-19T10:52:36;98886.31;;;18.44;94.88
71504;BME280;59323;50.874;7.028;2023-10-19T10:55:17;98880.38;;;18.36;94.79
71504;BME280;59323;50.874;7.028;2023-10-19T10:57:43;98880.84;;;18.35;95.45
71504;BME280;59323;50.874;7.028;2023-10-19T11:00:14;98888.03;;;18.32;96.06
71504;BME280;59323;50.874;7.028;2023-10-19T11:02:45;98869.41;;;18.27;96.15
71504;BME280;59323;50.874;7.028;2023-10-19T11:05:12;98865.28;;;18.14;96.86
71504;BME280;59323;50.874;7.028;2023-10-19T11:08:02;98859.63;;;18.17;96.20
71504;BME280;59323;50.874;7.028;2023-10-19T11:10:28;98865.44;;;18.10;97.08
71504;BME280;59323;50.874;7.028;2023-10-19T11:13:10;98858.75;;;18.02;98.11
71504;BME280;59323;50.874;7.028;2023-10-19T11:15:37;98866.81;;;18.05;98.05
71504;BME280;59323;50.874;7.028;2023-10-19T11:18:06;98863.63;;;18.07;98.18
71504;BME280;59323;50.874;7.028;2023-10-19T11:20:35;98850.63;;;18.08;98.39
71504;BME280;59323;50.874;7.028;2023-10-19T11:23:01;98858.28;;;18.03;98.41
71504;BME280;59323;50.874;7.028;2023-10-19T11:25:28;98863.31;;;18.05;98.20
71504;BME280;59323;50.874;7.028;2023-10-19T11:27:58;98854.00;;;17.93;98.30
71504;BME280;59323;50.874;7.028;2023-10-19T11:30:28;98852.47;;;18.01;97.70
71504;BME280;59323;50.874;7.028;2023-10-19T11:33:03;98849.88;;;17.98;97.92
71504;BME280;59323;50.874;7.028;2023-10-19T11:35:30;98832.81;;;17.85;97.93
71504;BME280;59323;50.874;7.028;2023-10-19T11:37:57;98836.47;;;17.91;97.47
71504;BME280;59323;50.874;7.028;2023-10-19T11:40:25;98836.91;;;17.89;97.08
71504;BME280;59323;50.874;7.028;2023-10-19T11:42:51;98826.22;;;17.91;97.40
71504;BME280;59323;50.874;7.028;2023-10-19T11:45:18;98822.25;;;17.92;97.63
71504;BME280;59323;50.874;7.028;2023-10-19T11:47:45;98817.22;;;17.91;97.99
71504;BME280;59323;50.874;7.028;2023-10-19T11:50:11;98827.16;;;17.88;98.15
71504;BME280;59323;50.874;7.028;2023-10-19T11:52:40;98824.56;;;17.76;98.52
71504;BME280;59323;50.874;7.028;2023-10-19T11:55:05;98836.94;;;17.80;99.60
71504;BME280;59323;50.874;7.028;2023-10-19T11:57:31;98837.41;;;17.79;99.03
71504;BME280;59323;50.874;7.028;2023-10-19T11:59:58;98847.16;;;17.80;98.58
71504;BME280;59323;50.874;7.028;2023-10-19T12:02:24;98854.81;;;17.76;98.64
71504;BME280;59323;50.874;7.028;2023-10-19T12:04:50;98838.94;;;17.70;99.21
71504;BME280;59323;50.874;7.028;2023-10-19T12:07:15;98831.59;;;17.67;98.91
71504;BME280;59323;50.874;7.028;2023-10-19T12:09:41;98829.75;;;17.64;97.92
71504;BME280;59323;50.874;7.028;2023-10-19T12:12:07;98833.09;;;17.59;98.86
71504;BME280;59323;50.874;7.028;2023-10-19T12:14:36;98854.59;;;17.52;100.00
71504;BME280;59323;50.874;7.028;2023-10-19T12:17:02;98848.03;;;17.49;100.00
71504;BME280;59323;50.874;7.028;2023-10-19T12:19:30;98846.81;;;17.50;100.00
71504;BME280;59323;50.874;7.028;2023-10-19T12:21:56;98846.66;;;17.44;100.00
71504;BME280;59323;50.874;7.028;2023-10-19T12:24:22;98847.41;;;17.36;100.00
71504;BME280;59323;50.874;7.028;2023-10-19T12:26:48;98850.47;;;17.38;100.00
71504;BME280;59323;50.874;7.028;2023-10-19T12:29:14;98844.53;;;17.39;100.00
71504;BME280;59323;50.874;7.028;2023-10-19T12:31:42;98849.41;;;17.35;100.00
71504;BME280;59323;50.874;7.028;2023-10-19T12:34:07;98849.84;;;17.34;100.00
71504;BME280;59323;50.874;7.028;2023-10-19T12:36:34;98846.97;;;17.37;100.00
71504;BME280;59323;50.874;7.028;2023-10-19T12:39:00;98845.28;;;17.40;100.00
71504;BME280;59323;50.874;7.028;2023-10-19T12:41:26;98845.88;;;17.35;100.00
71504;BME280;59323;50.874;7.028;2023-10-19T12:43:56;98846.81;;;17.32;100.00
71504;BME280;59323;50.874;7.028;2023-10-19T12:46:26;98850.91;;;17.27;100.00
71504;BME280;59323;50.874;7.028;2023-10-19T12:48:56;98848.94;;;17.28;100.00
71504;BME280;59323;50.874;7.028;2023-10-19T12:51:25;98847.88;;;17.25;100.00
71504;BME280;59323;50.874;7.028;2023-10-19T12:53:51;98851.06;;;17.24;100.00
71504;BME280;59323;50.874;7.028;2023-10-19T12:56:21;98847.84;;;17.16;100.00
71504;BME280;59323;50.874;7.028;2023-10-19T12:58:49;98846.31;;;17.06;100.00
71504;BME280;59323;50.874;7.028;2023-10-19T13:01:15;98856.97;;;17.04;100.00
71504;BME280;59323;50.874;7.028;2023-10-19T13:03:48;98853.63;;;17.00;100.00
71504;BME280;59323;50.874;7.028;2023-10-19T13:06:15;98854.66;;;16.93;100.00
71504;BME280;59323;50.874;7.028;2023-10-19T13:08:40;98856.50;;;16.96;100.00
71504;BME280;59323;50.874;7.028;2023-10-19T13:11:09;98846.75;;;16.95;100.00